Time;durP1;ratioP1;P1;durP2;ratioP2;P2;SDS_P1;SDS_P2;PMS_P1;PMS_P2;Temp;Humidity;BMP_temperature;BMP_pressure;BME280_temperature;BME280_humidity;BME280_pressure;Samples;Min_cycle;Max_cycle;Signal;HPM_P1;HPM_P2
2022/07/08 00:00:17;;;;;;;8.53;8.00;;;;;;;22.11;100.00;99275.25;5131867;27;20207;-71
2022/07/08 00:02:44;;;;;;;7.23;6.77;;;;;;;22.08;100.00;99280.72;5133219;27;20197;-71
2022/07/08 00:05:11;;;;;;;7.73;7.27;;;;;;;22.09;100.00;99282.38;5114896;27;20658;-71
2022/07/08 00:07:39;;;;;;;6.83;6.47;;;;;;;22.15;100.00;99279.28;5113091;28;20276;-71
2022/07/08 00:10:07;;;;;;;6.57;6.27;;;;;;;22.14;100.00;99281.06;5114501;27;20199;-71
2022/07/08 00:12:34;;;;;;;7.10;6.70;;;;;;;22.21;100.00;99286.63;5122343;27;20266;-71
2022/07/08 00:15:01;;;;;;;6.63;6.33;;;;;;;22.16;100.00;99283.56;5126634;27;20221;-71
2022/07/08 00:17:28;;;;;;;7.00;6.47;;;;;;;22.14;100.00;99280.22;5127542;27;20197;-71
2022/07/08 00:19:55;;;;;;;6.60;6.30;;;;;;;22.20;100.00;99284.97;5132618;27;20205;-71
2022/07/08 00:22:22;;;;;;;6.13;5.83;;;;;;;22.25;100.00;99280.22;5117884;27;20194;-71
2022/07/08 00:24:50;;;;;;;7.07;6.57;;;;;;;22.24;100.00;99266.31;5132939;27;20197;-71
2022/07/08 00:27:17;;;;;;;5.83;5.53;;;;;;;22.40;100.00;99281.59;5131988;27;20213;-71
2022/07/08 00:29:44;;;;;;;6.03;5.73;;;;;;;22.52;100.00;99290.25;5132147;27;20247;-71
2022/07/08 00:32:11;;;;;;;6.60;6.10;;;;;;;22.57;100.00;99286.28;5114707;27;20590;-71
2022/07/08 00:34:38;;;;;;;7.00;6.40;;;;;;;22.65;100.00;99286.47;5131287;27;20611;-71
2022/07/08 00:37:05;;;;;;;6.17;5.77;;;;;;;22.67;100.00;99281.19;5131924;27;20194;-71
2022/07/08 00:39:32;;;;;;;6.97;6.57;;;;;;;22.65;100.00;99273.41;5129885;27;20687;-71
2022/07/08 00:42:01;;;;;;;6.30;5.80;;;;;;;22.69;100.00;99271.41;5131080;27;20695;-71
2022/07/08 00:44:28;;;;;;;6.57;6.07;;;;;;;22.65;100.00;99276.03;5132803;27;20311;-71
2022/07/08 00:46:54;;;;;;;5.83;5.43;;;;;;;22.58;100.00;99259.22;5132297;27;20218;-71
2022/07/08 00:49:21;;;;;;;6.27;5.97;;;;;;;22.69;100.00;99277.47;5132321;27;20202;-71
2022/07/08 00:51:49;;;;;;;6.87;6.47;;;;;;;22.69;100.00;99267.03;5115587;27;20199;-71
2022/07/08 00:54:19;;;;;;;7.70;7.30;;;;;;;22.71;100.00;99270.38;5109837;27;20202;-71
2022/07/08 00:56:46;;;;;;;6.83;6.43;;;;;;;22.68;100.00;99257.53;5111792;27;20570;-71
2022/07/08 00:59:14;;;;;;;6.77;6.37;;;;;;;22.72;100.00;99266.78;5110939;27;20722;-71
2022/07/08 01:01:42;;;;;;;7.90;7.10;;;;;;;22.69;100.00;99255.75;5110175;27;20202;-71
2022/07/08 01:04:09;;;;;;;7.17;6.77;;;;;;;22.77;100.00;99264.63;5109536;28;20194;-71
2022/07/08 01:06:35;;;;;;;6.47;6.07;;;;;;;22.75;100.00;99271.75;5110026;28;20211;-71
2022/07/08 01:09:03;;;;;;;6.50;6.20;;;;;;;22.70;100.00;99270.47;5123222;27;20623;-71
2022/07/08 01:11:29;;;;;;;5.80;5.50;;;;;;;22.56;100.00;99271.56;5120595;27;20205;-71
2022/07/08 01:13:57;;;;;;;6.70;6.30;;;;;;;22.58;100.00;99272.28;5115773;27;20210;-71
2022/07/08 01:16:25;;;;;;;7.07;6.50;;;;;;;22.51;100.00;99263.28;5121662;27;20202;-71
2022/07/08 01:18:52;;;;;;;7.03;6.53;;;;;;;22.48;100.00;99258.31;5131951;27;20209;-71
2022/07/08 01:21:20;;;;;;;6.67;6.20;;;;;;;22.45;100.00;99259.41;5113758;27;20197;-71
2022/07/08 01:23:47;;;;;;;6.67;6.17;;;;;;;22.39;100.00;99256.44;5110735;28;20210;-71
2022/07/08 01:26:14;;;;;;;6.67;6.30;;;;;;;22.32;100.00;99258.72;5111369;28;20214;-71
2022/07/08 01:28:44;;;;;;;6.33;6.03;;;;;;;22.20;100.00;99245.78;5115925;27;20691;-71
2022/07/08 01:31:11;;;;;;;5.80;5.50;;;;;;;22.23;100.00;99258.63;5124018;27;20200;-71
2022/07/08 01:33:38;;;;;;;6.23;5.93;;;;;;;22.12;100.00;99245.59;5122461;27;20546;-71
2022/07/08 01:36:06;;;;;;;6.37;6.00;;;;;;;22.12;100.00;99242.97;5131716;27;20631;-71
2022/07/08 01:38:36;;;;;;;6.73;6.23;;;;;;;22.05;100.00;99245.25;5131612;27;20685;-71
2022/07/08 01:41:03;;;;;;;6.80;6.30;;;;;;;21.90;100.00;99223.81;5118523;27;20285;-71
2022/07/08 01:43:30;;;;;;;6.87;6.47;;;;;;;22.02;100.00;99247.28;5111265;28;20658;-71
2022/07/08 01:45:57;;;;;;;7.17;6.77;;;;;;;22.03;100.00;99243.72;5111008;28;20234;-71
2022/07/08 01:48:24;;;;;;;6.30;5.80;;;;;;;21.93;100.00;99241.00;5111180;28;20201;-71
2022/07/08 01:50:51;;;;;;;6.80;6.43;;;;;;;21.91;100.00;99232.44;5112548;28;20198;-71
2022/07/08 01:53:18;;;;;;;7.00;6.47;;;;;;;21.93;100.00;99259.28;5129451;28;20208;-71
2022/07/08 01:55:46;;;;;;;6.60;6.30;;;;;;;21.92;100.00;99248.00;5131230;28;20200;-71
2022/07/08 01:58:13;;;;;;;6.30;5.90;;;;;;;21.95;100.00;99245.16;5131407;28;20235;-71
2022/07/08 02:00:40;;;;;;;6.27;5.87;;;;;;;22.00;100.00;99251.78;5131102;28;20205;-71
2022/07/08 02:03:07;;;;;;;5.67;5.37;;;;;;;22.02;100.00;99260.31;5131453;28;20210;-71
2022/07/08 02:05:34;;;;;;;6.10;5.70;;;;;;;22.04;100.00;99253.19;5131444;27;20703;-71
2022/07/08 02:08:02;;;;;;;5.90;5.50;;;;;;;22.07;100.00;99250.38;5129190;27;20213;-71
2022/07/08 02:12:18;;;;;;;5.77;5.50;;;;;;;22.08;100.00;99254.63;5119471;27;20207;-71
2022/07/08 02:13:17;;;;;;;6.53;5.87;;;;;;;22.13;100.00;99260.31;5112697;28;20202;-71
2022/07/08 02:15:44;;;;;;;6.50;5.83;;;;;;;22.15;100.00;99261.00;5110773;28;20195;-71
2022/07/08 02:18:11;;;;;;;6.57;6.03;;;;;;;22.18;100.00;99266.81;5130750;28;20277;-72
2022/07/08 02:20:38;;;;;;;6.30;5.83;;;;;;;22.22;100.00;99265.63;5131082;27;20569;-72
2022/07/08 02:23:05;;;;;;;7.43;6.93;;;;;;;22.24;100.00;99268.09;5131448;27;20647;-72
2022/07/08 02:25:32;;;;;;;7.50;6.90;;;;;;;22.23;100.00;99267.25;5131217;28;20197;-73
2022/07/08 02:27:59;;;;;;;7.87;7.13;;;;;;;22.23;100.00;99271.69;5131176;28;20738;-73
2022/07/08 02:30:27;;;;;;;7.20;6.80;;;;;;;22.25;100.00;99273.22;5130798;28;20197;-72
2022/07/08 02:32:54;;;;;;;7.77;7.27;;;;;;;22.24;100.00;99283.78;5131136;28;20197;-72
2022/07/08 02:35:21;;;;;;;8.33;7.37;;;;;;;22.16;100.00;99288.78;5132435;27;20232;-72
2022/07/08 02:37:48;;;;;;;7.13;6.73;;;;;;;22.10;100.00;99287.47;5135177;27;20190;-72
2022/07/08 02:40:14;;;;;;;7.07;6.67;;;;;;;22.05;100.00;99286.19;5128288;27;20198;-72
2022/07/08 02:42:41;;;;;;;8.50;8.00;;;;;;;21.92;100.00;99274.09;5112923;27;20839;-72
2022/07/08 02:45:09;;;;;;;7.77;6.97;;;;;;;22.04;100.00;99294.97;5126187;27;20708;-72
2022/07/08 02:47:37;;;;;;;7.73;7.03;;;;;;;21.99;100.00;99290.13;5131889;27;20223;-72
2022/07/08 02:50:05;;;;;;;7.20;6.80;;;;;;;21.91;100.00;99298.53;5128793;27;20207;-72
2022/07/08 02:52:32;;;;;;;8.03;7.53;;;;;;;21.84;100.00;99301.72;5114308;28;20209;-72
2022/07/08 02:54:59;;;;;;;8.57;7.80;;;;;;;21.79;100.00;99302.06;5126114;27;20608;-72
2022/07/08 02:57:26;;;;;;;9.17;8.57;;;;;;;21.78;100.00;99299.56;5134410;27;20190;-73
2022/07/08 02:59:53;;;;;;;8.27;7.70;;;;;;;21.78;100.00;99300.41;5129411;27;20216;-72
2022/07/08 03:02:19;;;;;;;8.93;8.33;;;;;;;21.76;100.00;99294.50;5127106;27;20209;-72
2022/07/08 03:04:48;;;;;;;7.27;6.83;;;;;;;21.74;100.00;99295.56;5114424;28;20202;-72
2022/07/08 03:07:15;;;;;;;8.00;7.53;;;;;;;21.68;100.00;99302.06;5117970;27;20247;-72
2022/07/08 03:09:41;;;;;;;8.60;7.47;;;;;;;21.70;100.00;99308.00;5126032;27;20202;-72
2022/07/08 03:12:09;;;;;;;7.80;7.30;;;;;;;21.71;100.00;99312.25;5114133;27;20202;-72
2022/07/08 03:14:36;;;;;;;8.83;8.23;;;;;;;21.72;100.00;99311.31;5114008;28;20217;-72
2022/07/08 03:17:03;;;;;;;8.77;8.27;;;;;;;21.74;100.00;99312.06;5131723;27;20573;-73
2022/07/08 03:19:30;;;;;;;8.53;8.03;;;;;;;21.75;100.00;99310.25;5132836;27;20234;-72
2022/07/08 03:21:58;;;;;;;7.80;7.40;;;;;;;21.76;100.00;99302.31;5117481;27;20543;-72
2022/07/08 03:24:25;;;;;;;7.47;7.00;;;;;;;21.80;100.00;99302.91;5117389;27;20666;-72
2022/07/08 03:26:51;;;;;;;8.20;7.60;;;;;;;21.82;100.00;99301.84;5113619;28;20225;-72
2022/07/08 03:29:18;;;;;;;7.70;7.30;;;;;;;21.86;100.00;99303.28;5132477;27;20198;-72
2022/07/08 03:31:45;;;;;;;8.20;7.70;;;;;;;21.86;100.00;99300.66;5133936;27;20205;-72
2022/07/08 03:34:12;;;;;;;8.47;7.97;;;;;;;21.88;100.00;99288.31;5134087;27;20264;-72
2022/07/08 03:36:39;;;;;;;8.73;8.07;;;;;;;21.90;100.00;99289.06;5133921;27;20202;-72
2022/07/08 03:39:07;;;;;;;8.67;8.17;;;;;;;21.94;100.00;99298.28;5133819;27;20197;-72
2022/07/08 03:41:34;;;;;;;7.73;7.13;;;;;;;22.01;100.00;99303.03;5115269;27;20201;-72
2022/07/08 03:44:01;;;;;;;7.63;7.20;;;;;;;22.06;100.00;99303.53;5113259;28;20198;-73
2022/07/08 03:46:28;;;;;;;7.80;7.40;;;;;;;22.11;100.00;99301.34;5112924;28;20228;-72
2022/07/08 03:48:54;;;;;;;9.27;8.40;;;;;;;22.20;100.00;99306.69;5130028;27;20220;-72
2022/07/08 03:51:23;;;;;;;8.43;7.47;;;;;;;22.31;100.00;99303.22;5113667;27;20202;-72
2022/07/08 03:53:50;;;;;;;7.87;7.37;;;;;;;22.13;100.00;99257.69;5113130;28;20553;-72
2022/07/08 03:56:18;;;;;;;7.33;6.93;;;;;;;22.46;100.00;99299.38;5113116;28;20728;-72
2022/07/08 03:58:45;;;;;;;8.00;7.50;;;;;;;22.54;100.00;99299.59;5113251;27;20202;-73
2022/07/08 04:01:12;;;;;;;7.93;7.40;;;;;;;22.74;100.00;99317.16;5117843;27;20198;-73
2022/07/08 04:03:39;;;;;;;6.97;6.63;;;;;;;22.86;100.00;99310.09;5116339;27;20221;-72
2022/07/08 04:06:06;;;;;;;9.70;6.70;;;;;;;22.92;100.00;99314.81;5115902;27;20666;-72
2022/07/08 04:08:33;;;;;;;6.93;6.53;;;;;;;23.05;100.00;99314.63;5123433;27;20232;-72
2022/07/08 04:11:00;;;;;;;6.77;6.43;;;;;;;23.17;100.00;99316.22;5129481;27;20202;-72
2022/07/08 04:13:28;;;;;;;6.83;6.53;;;;;;;23.33;100.00;99313.97;5117439;27;20700;-72
2022/07/08 04:15:55;;;;;;;7.70;7.30;;;;;;;23.45;100.00;99313.84;5126884;27;20689;-72
2022/07/08 04:18:24;;;;;;;6.60;6.30;;;;;;;23.39;100.00;99289.94;5130576;27;20205;-72
2022/07/08 04:20:51;;;;;;;6.77;6.47;;;;;;;23.35;100.00;99317.31;5128702;27;20190;-72
2022/07/08 04:23:18;;;;;;;8.33;7.90;;;;;;;23.12;100.00;99310.53;5129975;27;20210;-72
2022/07/08 04:25:45;;;;;;;8.90;8.10;;;;;;;23.00;100.00;99312.41;5132668;27;20681;-72
2022/07/08 04:28:13;;;;;;;8.47;7.97;;;;;;;22.93;100.00;99312.06;5132578;27;20240;-71
2022/07/08 04:30:41;;;;;;;9.33;8.73;;;;;;;23.09;100.00;99310.81;5123041;27;20199;-72
2022/07/08 04:33:08;;;;;;;8.40;7.97;;;;;;;23.20;100.00;99313.38;5115917;27;20201;-72
2022/07/08 04:35:35;;;;;;;7.53;6.90;;;;;;;23.30;100.00;99309.00;5127880;27;20676;-72
2022/07/08 04:38:03;;;;;;;7.33;6.83;;;;;;;23.33;99.45;99311.34;5132323;27;20205;-71
2022/07/08 04:40:29;;;;;;;7.87;7.37;;;;;;;23.37;98.97;99304.91;5132303;27;20562;-72
2022/07/08 04:42:57;;;;;;;7.67;7.27;;;;;;;23.40;98.08;99307.31;5132624;27;20198;-72
2022/07/08 04:45:24;;;;;;;7.37;7.07;;;;;;;23.40;98.09;99309.91;5131296;27;20198;-72
2022/07/08 04:47:52;;;;;;;8.17;7.53;;;;;;;23.41;98.02;99306.34;5131387;27;20328;-72
2022/07/08 04:50:19;;;;;;;7.37;6.97;;;;;;;23.34;98.53;99295.53;5126901;27;20206;-72
2022/07/08 04:52:47;;;;;;;8.40;7.67;;;;;;;23.33;97.42;99298.28;5131876;27;20657;-72
2022/07/08 04:55:28;;;;;;;7.70;7.20;;;;;;;23.44;97.47;99311.31;5132300;27;20562;-72
2022/07/08 04:57:56;;;;;;;7.33;7.00;;;;;;;23.44;97.84;99306.09;5128465;27;20220;-72
2022/07/08 05:00:22;;;;;;;7.93;7.53;;;;;;;23.46;98.36;99309.41;5123659;27;20262;-72
2022/07/08 05:02:49;;;;;;;8.70;7.73;;;;;;;23.42;100.00;99302.78;5125777;27;20202;-71
2022/07/08 05:05:18;;;;;;;7.70;7.30;;;;;;;23.61;100.00;99313.34;5118036;27;20206;-72
2022/07/08 05:07:45;;;;;;;7.73;7.23;;;;;;;23.82;100.00;99316.75;5111698;28;20700;-71
2022/07/08 05:10:12;;;;;;;8.43;8.00;;;;;;;24.10;99.79;99319.59;5114908;27;20197;-72
2022/07/08 05:12:38;;;;;;;7.50;7.10;;;;;;;24.30;98.13;99322.16;5123017;27;20194;-71
2022/07/08 05:15:06;;;;;;;7.17;6.77;;;;;;;24.51;97.87;99320.28;5122763;27;20198;-71
2022/07/08 05:17:33;;;;;;;7.43;7.03;;;;;;;24.72;96.25;99317.53;5120224;27;20186;-71
2022/07/08 05:20:00;;;;;;;7.17;6.73;;;;;;;24.91;93.37;99333.28;5130829;27;20657;-67
2022/07/08 05:22:28;;;;;;;6.90;6.50;;;;;;;25.04;90.18;99328.59;5129250;27;20200;-71
2022/07/08 05:24:55;;;;;;;6.50;6.10;;;;;;;25.25;90.15;99331.06;5115305;27;20205;-72
2022/07/08 05:27:22;;;;;;;6.87;6.57;;;;;;;25.46;90.94;99312.50;5121130;27;20221;-71
2022/07/08 05:29:49;;;;;;;6.63;6.13;;;;;;;25.77;90.47;99316.56;5118140;27;20806;-70
2022/07/08 05:32:16;;;;;;;5.97;5.47;;;;;;;26.11;88.52;99322.06;5120829;27;20195;-68
2022/07/08 05:34:44;;;;;;;5.77;5.37;;;;;;;26.34;84.82;99330.41;5130118;27;20190;-68
2022/07/08 05:37:11;;;;;;;5.97;5.57;;;;;;;26.64;84.42;99330.09;5128947;27;20202;-71
2022/07/08 05:39:40;;;;;;;7.57;5.57;;;;;;;26.75;78.11;99335.13;5118294;27;20666;-72
2022/07/08 05:42:08;;;;;;;5.90;5.50;;;;;;;26.89;79.29;99331.16;5117242;28;20275;-68
2022/07/08 05:44:36;;;;;;;5.77;5.37;;;;;;;27.08;79.38;99334.44;5116787;27;20194;-70
2022/07/08 05:47:03;;;;;;;6.73;6.23;;;;;;;27.21;77.96;99326.16;5124458;27;20676;-69
2022/07/08 05:49:30;;;;;;;5.27;5.07;;;;;;;27.49;77.25;99338.25;5124440;28;20217;-67
2022/07/08 05:51:56;;;;;;;5.37;5.17;;;;;;;27.40;75.78;99336.50;5121188;28;20198;-70
2022/07/08 05:54:23;;;;;;;5.07;4.77;;;;;;;27.44;75.39;99344.94;5128249;28;20216;-69
2022/07/08 05:56:51;;;;;;;5.87;5.57;;;;;;;27.52;75.00;99329.22;5122612;27;20205;-71
2022/07/08 05:59:18;;;;;;;5.70;5.40;;;;;;;27.63;75.16;99337.66;5117024;28;20195;-70
2022/07/08 06:01:45;;;;;;;6.20;5.90;;;;;;;27.54;74.09;99338.59;5122677;27;20216;-67
2022/07/08 06:04:12;;;;;;;5.67;5.40;;;;;;;27.63;76.63;99336.81;5124544;28;20194;-68
2022/07/08 06:06:39;;;;;;;5.90;5.60;;;;;;;27.64;73.74;99349.03;5124382;27;20202;-74
2022/07/08 06:09:06;;;;;;;5.40;5.20;;;;;;;27.60;73.12;99342.41;5126033;27;20218;-71
2022/07/08 06:11:33;;;;;;;5.50;5.20;;;;;;;27.67;74.15;99340.81;5131670;27;20202;-70
2022/07/08 06:14:01;;;;;;;6.10;5.80;;;;;;;27.83;74.17;99343.53;5126703;27;20198;-74
2022/07/08 06:16:28;;;;;;;5.27;4.97;;;;;;;28.03;74.68;99342.31;5125964;27;20712;-73
2022/07/08 06:18:55;;;;;;;5.23;4.93;;;;;;;28.28;74.43;99348.53;5129503;27;20202;-74
2022/07/08 06:21:22;;;;;;;6.10;5.80;;;;;;;28.42;71.15;99344.44;5123277;27;20206;-71
2022/07/08 06:23:49;;;;;;;5.47;5.17;;;;;;;28.20;70.83;99347.69;5132195;27;20198;-72
2022/07/08 06:26:17;;;;;;;5.70;5.40;;;;;;;27.99;70.47;99348.03;5129499;27;20213;-73
2022/07/08 06:28:44;;;;;;;6.07;5.77;;;;;;;27.90;70.88;99338.47;5127682;27;20215;-72
2022/07/08 06:31:12;;;;;;;6.13;5.83;;;;;;;27.93;71.97;99338.13;5132551;27;20213;-73
2022/07/08 06:33:39;;;;;;;5.90;5.60;;;;;;;27.96;72.98;99333.38;5132579;27;20457;-74
2022/07/08 06:36:07;;;;;;;5.40;5.10;;;;;;;28.07;72.19;99317.34;5124600;27;20207;-72
2022/07/08 06:38:34;;;;;;;5.87;5.57;;;;;;;28.32;71.10;99326.13;5131468;27;20206;-73
2022/07/08 06:41:01;;;;;;;5.83;5.53;;;;;;;28.61;72.13;99333.63;5131699;27;20206;-75
2022/07/08 06:43:27;;;;;;;5.73;5.43;;;;;;;28.88;73.60;99328.09;5127606;27;20198;-75
2022/07/08 06:45:54;;;;;;;5.80;5.50;;;;;;;29.26;72.29;99331.06;5133881;27;20554;-74
2022/07/08 06:48:23;;;;;;;5.00;4.80;;;;;;;29.61;72.29;99320.09;5124856;27;20274;-75
2022/07/08 06:50:49;;;;;;;6.68;6.18;;;;;;;29.79;71.93;99318.03;5126847;27;20581;-74
2022/07/08 06:53:16;;;;;;;5.78;5.45;;;;;;;29.84;70.01;99315.75;5129782;27;20238;-74
2022/07/08 06:55:43;;;;;;;5.88;5.57;;;;;;;29.84;66.88;99318.41;5127888;27;20198;-75
2022/07/08 06:58:10;;;;;;;5.97;5.68;;;;;;;29.94;68.22;99316.38;5129510;27;20209;-74
2022/07/08 07:00:37;;;;;;;5.80;5.38;;;;;;;29.91;66.69;99315.91;5129131;27;20551;-76
2022/07/08 07:03:04;;;;;;;5.70;5.40;;;;;;;29.97;65.98;99321.34;5123334;27;20206;-75
2022/07/08 07:05:32;;;;;;;5.68;5.30;;;;;;;29.71;66.60;99310.16;5126042;27;20194;-75
2022/07/08 07:07:59;;;;;;;5.68;5.38;;;;;;;29.58;68.11;99317.78;5133860;27;20214;-76
2022/07/08 07:10:26;;;;;;;6.60;6.20;;;;;;;29.47;68.57;99315.50;5120961;27;20217;-75
2022/07/08 07:12:53;;;;;;;5.63;5.40;;;;;;;29.31;66.55;99316.34;5123975;27;20202;-75
2022/07/08 07:15:20;;;;;;;5.35;5.15;;;;;;;29.08;67.91;99316.19;5121668;27;20198;-70
2022/07/08 07:17:46;;;;;;;6.30;6.00;;;;;;;29.01;68.02;99312.56;5123049;27;20659;-69
2022/07/08 07:20:13;;;;;;;6.03;5.53;;;;;;;28.85;68.66;99309.94;5126301;27;20201;-69
2022/07/08 07:22:42;;;;;;;5.78;5.53;;;;;;;28.62;67.43;99315.00;5120990;27;20202;-68
2022/07/08 07:25:09;;;;;;;5.70;5.40;;;;;;;28.31;69.01;99306.00;5132414;27;20210;-68
2022/07/08 07:27:36;;;;;;;6.43;6.13;;;;;;;28.28;69.45;99308.16;5117094;27;20209;-68
2022/07/08 07:30:04;;;;;;;6.60;6.00;;;;;;;28.17;69.68;99303.19;5125536;27;20218;-69
2022/07/08 07:32:31;;;;;;;6.13;5.83;;;;;;;28.34;71.13;99310.97;5120754;27;20198;-73
2022/07/08 07:34:57;;;;;;;5.87;5.67;;;;;;;28.21;70.56;99302.69;5130243;27;20198;-72
2022/07/08 07:37:24;;;;;;;5.90;5.60;;;;;;;28.10;70.79;99298.56;5130907;27;20205;-73
2022/07/08 07:39:52;;;;;;;6.30;5.93;;;;;;;28.20;70.70;99300.22;5122551;27;20666;-72
2022/07/08 07:42:19;;;;;;;7.10;6.47;;;;;;;28.35;70.95;99301.25;5116741;27;20970;-72
2022/07/08 07:44:46;;;;;;;7.37;6.87;;;;;;;28.45;69.28;99296.66;5130997;27;20550;-72
2022/07/08 07:47:13;;;;;;;6.20;5.90;;;;;;;28.54;71.07;99298.31;5118069;27;20238;-72
2022/07/08 07:49:40;;;;;;;6.57;6.17;;;;;;;28.73;71.21;99300.66;5123875;27;20227;-72
2022/07/08 07:52:07;;;;;;;5.97;5.67;;;;;;;28.82;71.69;99299.69;5116424;27;20201;-73
2022/07/08 07:54:34;;;;;;;5.73;5.43;;;;;;;28.81;69.52;99297.22;5123971;27;20638;-72
2022/07/08 07:57:02;;;;;;;6.80;6.40;;;;;;;28.78;68.17;99287.84;5125712;27;20195;-73
2022/07/08 07:59:29;;;;;;;6.50;6.20;;;;;;;29.02;68.90;99306.28;5124014;27;20195;-73
2022/07/08 08:01:56;;;;;;;7.43;7.03;;;;;;;29.28;71.37;99300.00;5132114;27;20289;-73
2022/07/08 08:04:22;;;;;;;6.35;6.05;;;;;;;29.34;68.28;99299.38;5125111;27;20205;-72
2022/07/08 08:06:49;;;;;;;6.35;6.05;;;;;;;29.41;68.92;99281.84;5126025;27;20195;-72
2022/07/08 08:09:16;;;;;;;6.55;6.22;;;;;;;29.61;72.09;99281.28;5122636;27;20602;-73
2022/07/08 08:11:43;;;;;;;6.43;5.93;;;;;;;29.94;68.30;99276.75;5128713;27;20685;-72
2022/07/08 08:14:11;;;;;;;6.57;6.28;;;;;;;29.59;67.11;99245.47;5133067;27;20676;-73
2022/07/08 08:16:38;;;;;;;7.72;7.22;;;;;;;29.74;65.61;99286.03;5130001;27;20580;-72
2022/07/08 08:19:05;;;;;;;8.18;7.78;;;;;;;29.68;69.18;99247.09;5126396;27;20199;-69
2022/07/08 08:21:32;;;;;;;7.53;6.93;;;;;;;30.07;70.13;99281.47;5123955;27;20685;-69
2022/07/08 08:23:58;;;;;;;8.13;7.65;;;;;;;30.08;70.34;99272.53;5121370;27;20213;-71
2022/07/08 08:26:25;;;;;;;6.78;6.30;;;;;;;30.26;69.25;99269.63;5118690;27;20613;-71
2022/07/08 08:28:52;;;;;;;7.45;6.78;;;;;;;30.42;67.17;99272.19;5124375;27;20218;-70
2022/07/08 08:31:20;;;;;;;6.63;6.32;;;;;;;30.50;66.92;99272.16;5121722;27;20205;-69
2022/07/08 08:33:47;;;;;;;7.03;6.63;;;;;;;30.23;65.85;99275.25;5124095;27;20206;-69
2022/07/08 08:36:14;;;;;;;7.22;6.85;;;;;;;30.00;68.09;99259.34;5126359;27;20683;-70
2022/07/08 08:38:41;;;;;;;6.88;6.57;;;;;;;30.16;66.75;99262.72;5124898;27;20202;-70
2022/07/08 08:41:09;;;;;;;8.00;7.50;;;;;;;30.40;66.75;99260.97;5128770;27;20194;-69
2022/07/08 08:43:36;;;;;;;7.93;7.40;;;;;;;30.24;65.80;99258.41;5126351;27;20246;-68
2022/07/08 08:46:03;;;;;;;8.55;7.97;;;;;;;30.35;65.76;99253.53;5126658;27;20724;-70
2022/07/08 08:48:36;;;;;;;8.63;8.13;;;;;;;30.53;65.53;99253.28;5123136;27;21344;-70
2022/07/08 08:51:07;;;;;;;8.38;7.97;;;;;;;30.44;65.22;99257.78;5128051;27;20202;-68
2022/07/08 08:53:40;;;;;;;8.80;8.23;;;;;;;30.60;65.01;99256.84;5130081;27;20210;-69
2022/07/08 08:56:11;;;;;;;8.73;8.30;;;;;;;30.86;67.08;99257.28;5123740;27;20198;-70
2022/07/08 08:58:39;;;;;;;9.05;8.55;;;;;;;30.83;65.81;99251.50;5121585;27;20241;-70
2022/07/08 09:01:07;;;;;;;10.32;9.65;;;;;;;30.76;61.72;99256.69;5121280;27;20640;-70
2022/07/08 09:03:35;;;;;;;8.80;8.40;;;;;;;30.75;64.76;99255.06;5125881;27;20202;-70
2022/07/08 09:06:02;;;;;;;9.93;9.38;;;;;;;30.92;63.15;99261.84;5119867;27;20201;-69
2022/07/08 09:08:29;;;;;;;9.38;8.88;;;;;;;30.88;62.41;99247.34;5128707;27;20201;-69
2022/07/08 09:10:56;;;;;;;8.50;7.95;;;;;;;30.86;64.44;99251.97;5128436;27;20202;-69
2022/07/08 09:13:25;;;;;;;10.05;9.35;;;;;;;30.58;63.21;99238.50;5128407;27;20288;-68
2022/07/08 09:15:57;;;;;;;9.85;9.35;;;;;;;30.39;63.83;99236.31;5130436;27;20670;-69
2022/07/08 09:18:28;;;;;;;10.38;9.60;;;;;;;30.54;65.39;99233.72;5122358;27;20284;-69
2022/07/08 09:20:58;;;;;;;8.68;8.25;;;;;;;30.40;66.15;99234.53;5127675;27;20286;-69
2022/07/08 09:23:27;;;;;;;8.02;7.20;;;;;;;30.10;66.37;99237.00;5129286;27;20228;-69
2022/07/08 09:25:56;;;;;;;9.38;8.65;;;;;;;30.37;65.42;99229.56;5131305;27;20206;-69
2022/07/08 09:28:30;;;;;;;7.90;7.40;;;;;;;30.42;64.95;99221.94;5130755;27;20569;-69
2022/07/08 09:30:57;;;;;;;7.80;7.40;;;;;;;30.56;62.73;99224.63;5131235;27;20572;-69
2022/07/08 09:33:25;;;;;;;8.30;7.85;;;;;;;30.70;64.05;99226.47;5131498;27;20205;-69
2022/07/08 09:35:52;;;;;;;6.72;6.43;;;;;;;30.98;63.76;99223.31;5122186;27;20662;-68
2022/07/08 09:38:21;;;;;;;6.88;6.47;;;;;;;31.30;62.38;99230.09;5117429;27;20209;-68
2022/07/08 09:40:55;;;;;;;7.20;6.45;;;;;;;31.31;61.23;99223.78;5128169;27;20205;-68
2022/07/08 09:43:22;;;;;;;7.38;6.88;;;;;;;31.30;60.84;99224.78;5123070;27;20226;-68
2022/07/08 09:45:49;;;;;;;7.05;6.65;;;;;;;31.17;63.06;99222.78;5124010;27;20198;-67
2022/07/08 09:48:16;;;;;;;5.55;5.25;;;;;;;31.02;59.96;99230.69;5115723;27;20213;-68
2022/07/08 09:50:45;;;;;;;4.22;4.03;;;;;;;31.08;59.75;99239.75;5115025;27;20717;-68
2022/07/08 09:53:18;;;;;;;4.80;4.50;;;;;;;30.97;55.87;99217.19;5129874;28;20220;-68
2022/07/08 09:55:49;;;;;;;5.65;5.45;;;;;;;30.96;58.63;99214.69;5120287;28;20204;-68
2022/07/08 09:58:17;;;;;;;5.85;5.63;;;;;;;31.09;60.82;99207.78;5113220;28;20202;-68
2022/07/08 10:00:44;;;;;;;5.93;5.53;;;;;;;31.32;59.61;99207.69;5114899;28;20195;-67
2022/07/08 10:03:12;;;;;;;5.28;5.07;;;;;;;31.35;58.16;99204.69;5119237;27;20207;-67
2022/07/08 10:05:39;;;;;;;4.63;4.43;;;;;;;31.22;55.42;99200.03;5125916;28;20662;-68
2022/07/08 10:08:07;;;;;;;4.60;4.40;;;;;;;31.28;61.41;99192.38;5122807;27;20202;-68
2022/07/08 10:10:35;;;;;;;4.75;4.55;;;;;;;31.10;56.48;99190.91;5124302;28;20265;-67
2022/07/08 10:13:04;;;;;;;4.68;4.47;;;;;;;31.15;59.54;99192.97;5118430;28;20202;-68
2022/07/08 10:15:33;;;;;;;4.75;4.40;;;;;;;31.31;59.18;99184.06;5127036;28;20224;-67
2022/07/08 10:18:07;;;;;;;4.65;4.38;;;;;;;31.26;56.54;99173.16;5121534;28;20221;-67
2022/07/08 10:20:37;;;;;;;4.80;4.40;;;;;;;30.93;55.91;99178.78;5124372;28;20201;-67
2022/07/08 10:23:08;;;;;;;5.13;4.50;;;;;;;30.93;56.36;99178.78;5124602;28;20202;-68
2022/07/08 10:25:36;;;;;;;4.40;4.20;;;;;;;30.73;55.37;99159.13;5129552;28;20213;-67
2022/07/08 10:28:10;;;;;;;4.80;4.38;;;;;;;30.57;56.65;99159.28;5126537;28;20292;-67
2022/07/08 10:30:51;;;;;;;3.92;3.72;;;;;;;30.85;56.92;99151.59;5127302;28;20222;-68
2022/07/08 10:33:29;;;;;;;3.78;3.67;;;;;;;31.03;59.05;99160.00;5122441;28;20245;-67
2022/07/08 10:36:05;;;;;;;3.70;3.50;;;;;;;31.00;53.41;99163.03;5128480;28;20285;-67
2022/07/08 10:38:35;;;;;;;3.35;3.15;;;;;;;31.09;55.95;99165.41;5124464;28;20206;-68
2022/07/08 10:41:04;;;;;;;3.97;3.78;;;;;;;31.18;55.92;99158.22;5124970;27;20202;-68
2022/07/08 10:43:33;;;;;;;3.92;3.47;;;;;;;30.97;56.58;99148.34;5121397;28;20206;-68
2022/07/08 10:46:02;;;;;;;3.80;3.60;;;;;;;31.24;55.00;99145.03;5125888;27;20593;-68
2022/07/08 10:48:29;;;;;;;3.17;3.08;;;;;;;31.29;53.11;99154.25;5122930;27;20198;-68
2022/07/08 10:50:56;;;;;;;3.47;3.38;;;;;;;31.35;52.08;99150.88;5118456;27;20240;-69
2022/07/08 10:53:23;;;;;;;3.58;3.47;;;;;;;31.35;52.92;99134.97;5119216;27;20209;-69
2022/07/08 10:55:50;;;;;;;2.85;2.75;;;;;;;31.42;52.04;99141.19;5125823;27;20656;-68
2022/07/08 10:58:17;;;;;;;3.10;2.95;;;;;;;31.45;53.01;99130.19;5127860;27;20272;-67
2022/07/08 11:01:24;;;;;;;2.70;2.60;;;;;;;31.63;52.00;99123.50;5130654;27;20672;-68
2022/07/08 11:03:51;;;;;;;2.58;2.47;;;;;;;31.10;47.90;99127.34;5129846;27;20645;-67
2022/07/08 11:06:34;;;;;;;2.03;2.03;;;;;;;30.82;48.88;99118.38;5125150;27;20210;-68
2022/07/08 11:09:02;;;;;;;2.85;2.75;;;;;;;30.78;52.37;99116.25;5118679;27;20194;-68
2022/07/08 11:11:29;;;;;;;2.92;2.83;;;;;;;30.90;52.09;99102.38;5128704;27;20233;-67
2022/07/08 11:13:58;;;;;;;3.13;2.95;;;;;;;31.06;51.24;99109.34;5129213;27;20198;-67
2022/07/08 11:16:32;;;;;;;3.40;3.30;;;;;;;31.19;52.19;99104.22;5127631;27;20578;-67
2022/07/08 11:18:59;;;;;;;2.67;2.58;;;;;;;31.18;52.42;99103.38;5126805;27;20654;-67
2022/07/08 11:21:26;;;;;;;2.75;2.65;;;;;;;31.30;52.35;99108.22;5127670;27;20296;-68
2022/07/08 11:23:56;;;;;;;3.25;3.15;;;;;;;31.48;51.12;99103.34;5124717;27;20198;-67
2022/07/08 11:26:23;;;;;;;3.15;3.05;;;;;;;31.47;53.97;99096.41;5128411;27;20205;-68
2022/07/08 11:28:50;;;;;;;3.13;3.03;;;;;;;31.69;54.59;99095.47;5123626;27;20207;-68
2022/07/08 11:31:26;;;;;;;3.33;3.13;;;;;;;31.72;52.12;99090.59;5129602;27;20218;-68